createdAt,value
2018-09-27T00:00:46.828Z,15.9
2018-09-27T00:01:49.130Z,15.9
2018-09-27T00:02:51.549Z,15.9
2018-09-27T00:03:53.569Z,15.9
2018-09-27T00:04:55.609Z,15.9
2018-09-27T00:05:57.628Z,15.9
2018-09-27T00:06:59.945Z,15.9
2018-09-27T00:08:02.553Z,15.9
2018-09-27T00:09:04.957Z,15.9
2018-09-27T00:10:06.999Z,15.9
2018-09-27T00:11:09.032Z,15.9
2018-09-27T00:12:11.069Z,15.9
2018-09-27T00:13:13.089Z,15.9
2018-09-27T00:14:15.129Z,15.9
2018-09-27T00:15:17.158Z,15.9
2018-09-27T00:16:19.184Z,15.9
2018-09-27T00:17:21.226Z,15.9
2018-09-27T00:18:23.244Z,15.8
2018-09-27T00:19:25.339Z,15.8
2018-09-27T00:20:27.698Z,15.8
2018-09-27T00:21:30.030Z,15.9
2018-09-27T00:22:32.052Z,15.9
2018-09-27T00:23:34.078Z,15.9
2018-09-27T00:24:36.108Z,15.9
2018-09-27T00:25:38.141Z,15.8
2018-09-27T00:26:40.187Z,15.8
2018-09-27T00:27:42.213Z,15.8
2018-09-27T00:28:44.237Z,15.8
2018-09-27T00:29:46.278Z,15.9
2018-09-27T00:30:48.300Z,15.9
2018-09-27T00:31:50.331Z,15.8
2018-09-27T00:32:52.361Z,15.9
2018-09-27T00:33:54.764Z,15.8
2018-09-27T00:34:57.105Z,15.8
2018-09-27T00:35:59.135Z,15.9
2018-09-27T00:37:01.170Z,15.8
2018-09-27T00:38:03.471Z,15.8
2018-09-27T00:39:05.512Z,15.8
2018-09-27T00:40:07.542Z,15.8
2018-09-27T00:41:09.574Z,15.8
2018-09-27T00:42:11.613Z,15.8
2018-09-27T00:43:13.631Z,15.8
2018-09-27T00:44:15.661Z,15.8
2018-09-27T00:45:17.687Z,15.8
2018-09-27T00:46:19.730Z,15.8
2018-09-27T00:47:21.750Z,15.8
2018-09-27T00:48:23.778Z,15.8
2018-09-27T00:49:25.816Z,15.8
2018-09-27T00:50:27.832Z,15.8
2018-09-27T00:51:30.255Z,15.8
2018-09-27T00:52:32.669Z,15.8
2018-09-27T00:53:34.704Z,15.7
2018-09-27T00:54:36.739Z,15.8
2018-09-27T00:55:38.759Z,15.7
2018-09-27T00:56:40.787Z,15.8
2018-09-27T00:57:42.812Z,15.7
2018-09-27T00:58:45.124Z,15.7
2018-09-27T00:59:47.548Z,15.8
2018-09-27T01:00:49.963Z,15.8
2018-09-27T01:01:52.370Z,15.7
2018-09-27T01:02:54.406Z,15.7
2018-09-27T01:03:56.732Z,15.7
2018-09-27T01:04:58.763Z,15.7
2018-09-27T01:06:00.798Z,15.8
2018-09-27T01:07:03.106Z,15.8
2018-09-27T01:08:05.141Z,15.8
2018-09-27T01:09:07.449Z,15.8
2018-09-27T01:10:09.482Z,15.8
2018-09-27T01:11:11.500Z,15.7
2018-09-27T01:12:13.539Z,15.7
2018-09-27T01:13:15.569Z,15.7
2018-09-27T01:14:17.599Z,15.7
2018-09-27T01:15:19.642Z,15.7
2018-09-27T01:16:21.656Z,15.7
2018-09-27T01:17:23.689Z,15.7
2018-09-27T01:18:25.993Z,15.7
2018-09-27T01:19:28.032Z,15.8
2018-09-27T01:20:30.054Z,15.7
2018-09-27T01:21:32.082Z,15.7
2018-09-27T01:22:34.405Z,15.7
2018-09-27T01:23:36.423Z,15.7
2018-09-27T01:24:38.465Z,15.7
2018-09-27T01:25:40.497Z,15.7
2018-09-27T01:26:42.521Z,15.7
2018-09-27T01:27:44.549Z,15.6
2018-09-27T01:28:46.589Z,15.7
2018-09-27T01:29:48.622Z,15.7
2018-09-27T01:30:50.929Z,15.7
2018-09-27T01:31:52.956Z,15.7
2018-09-27T01:32:55.381Z,15.7
2018-09-27T01:33:57.409Z,15.6
2018-09-27T01:34:59.432Z,15.6
2018-09-27T01:36:01.475Z,15.6
2018-09-27T01:37:03.500Z,15.6
2018-09-27T01:38:05.526Z,15.6
2018-09-27T01:39:07.558Z,15.6
2018-09-27T01:40:09.583Z,15.6
2018-09-27T01:41:11.897Z,15.6
2018-09-27T01:42:13.925Z,15.6
2018-09-27T01:43:15.964Z,15.5
2018-09-27T01:44:18.265Z,15.5
2018-09-27T01:45:20.607Z,15.5
2018-09-27T01:46:22.637Z,15.5
2018-09-27T01:47:24.941Z,15.6
2018-09-27T01:48:27.396Z,15.6
2018-09-27T01:49:29.405Z,15.5
2018-09-27T01:50:31.436Z,15.6
2018-09-27T01:51:33.462Z,15.6
2018-09-27T01:52:35.502Z,15.5
2018-09-27T01:53:37.523Z,15.5
2018-09-27T01:54:39.552Z,15.4
2018-09-27T01:55:41.589Z,15.5
2018-09-27T01:56:43.607Z,15.5
2018-09-27T01:57:45.647Z,15.5
2018-09-27T01:58:47.679Z,15.5
2018-09-27T01:59:49.990Z,15.4
2018-09-27T02:00:52.302Z,15.4
2018-09-27T02:01:54.653Z,15.4
2018-09-27T02:02:56.680Z,15.4
2018-09-27T02:03:58.708Z,15.4
2018-09-27T02:05:00.739Z,15.4
2018-09-27T02:06:03.150Z,15.4
2018-09-27T02:07:05.186Z,15.4
2018-09-27T02:08:07.206Z,15.4
2018-09-27T02:09:09.531Z,15.4
2018-09-27T02:10:11.565Z,15.4
2018-09-27T02:11:13.593Z,15.4
2018-09-27T02:12:15.626Z,15.3
2018-09-27T02:13:17.646Z,15.4
2018-09-27T02:14:19.682Z,15.3
2018-09-27T02:15:22.381Z,15.3
2018-09-27T02:16:24.799Z,15.3
2018-09-27T02:17:26.822Z,15.3
2018-09-27T02:18:28.865Z,15.3
2018-09-27T02:19:31.557Z,15.3
2018-09-27T02:20:33.871Z,15.3
2018-09-27T02:21:36.301Z,15.3
2018-09-27T02:22:38.321Z,15.4
2018-09-27T02:23:40.353Z,15.4
2018-09-27T02:24:42.380Z,15.3
2018-09-27T02:25:44.420Z,15.4
2018-09-27T02:26:46.438Z,15.4
2018-09-27T02:27:48.855Z,15.4
2018-09-27T02:28:50.889Z,15.4
2018-09-27T02:29:52.906Z,15.3
2018-09-27T02:30:55.718Z,15.4
2018-09-27T02:31:58.335Z,15.4
2018-09-27T02:33:00.361Z,15.4
2018-09-27T02:34:02.820Z,15.4
2018-09-27T02:35:04.864Z,15.3
2018-09-27T02:36:06.889Z,15.4
2018-09-27T02:37:09.206Z,15.4
2018-09-27T02:38:11.627Z,15.4
2018-09-27T02:39:13.653Z,15.3
2018-09-27T02:40:15.732Z,15.4
2018-09-27T02:41:17.722Z,15.4
2018-09-27T02:42:20.125Z,15.4
2018-09-27T02:43:22.160Z,15.4
2018-09-27T02:44:24.196Z,15.4
2018-09-27T02:45:26.534Z,15.4
2018-09-27T02:46:29.167Z,15.4
2018-09-27T02:47:31.184Z,15.4
2018-09-27T02:48:33.209Z,15.4
2018-09-27T02:49:35.530Z,15.4
2018-09-27T02:50:38.334Z,15.4
2018-09-27T02:51:40.356Z,15.4
2018-09-27T02:52:42.697Z,15.4
2018-09-27T02:53:44.719Z,15.4
2018-09-27T02:54:47.015Z,15.4
2018-09-27T02:55:49.438Z,15.4
2018-09-27T02:56:51.468Z,15.4
2018-09-27T02:57:53.789Z,15.4
2018-09-27T02:58:55.799Z,15.4
2018-09-27T02:59:58.224Z,15.4
2018-09-27T03:01:00.256Z,15.4
2018-09-27T03:02:02.592Z,15.4
2018-09-27T03:03:04.915Z,15.4
2018-09-27T03:04:06.936Z,15.4
2018-09-27T03:05:09.248Z,15.4
2018-09-27T03:06:11.284Z,15.4
2018-09-27T03:07:13.316Z,15.4
2018-09-27T03:08:15.337Z,15.4
2018-09-27T03:09:17.647Z,15.4
2018-09-27T03:10:19.678Z,15.4
2018-09-27T03:11:21.707Z,15.4
2018-09-27T03:12:23.747Z,15.4
2018-09-27T03:13:25.781Z,15.4
2018-09-27T03:14:27.806Z,15.4
2018-09-27T03:15:29.840Z,15.4
2018-09-27T03:16:32.247Z,15.5
2018-09-27T03:17:34.280Z,15.5
2018-09-27T03:18:36.306Z,15.4
2018-09-27T03:19:38.710Z,15.5
2018-09-27T03:20:41.051Z,15.5
2018-09-27T03:21:43.371Z,15.5
2018-09-27T03:22:45.406Z,15.5
2018-09-27T03:23:47.731Z,15.5
2018-09-27T03:24:50.135Z,15.5
2018-09-27T03:25:52.165Z,15.5
2018-09-27T03:26:54.473Z,15.5
2018-09-27T03:27:56.496Z,15.5
2018-09-27T03:28:58.813Z,15.5
2018-09-27T03:30:00.849Z,15.6
2018-09-27T03:31:03.563Z,15.5
2018-09-27T03:32:06.167Z,15.5
2018-09-27T03:33:08.208Z,15.5
2018-09-27T03:34:10.554Z,15.5
2018-09-27T03:35:12.582Z,15.5
2018-09-27T03:36:14.620Z,15.5
2018-09-27T03:37:16.641Z,15.5
2018-09-27T03:38:19.442Z,15.6
2018-09-27T03:39:21.477Z,15.5
2018-09-27T03:40:23.810Z,15.5
2018-09-27T03:41:26.116Z,15.6
2018-09-27T03:42:28.441Z,15.5
2018-09-27T03:43:30.470Z,15.5
2018-09-27T03:44:32.884Z,15.6
2018-09-27T03:45:34.928Z,15.5
2018-09-27T03:46:36.957Z,15.5
2018-09-27T03:47:38.982Z,15.6
2018-09-27T03:48:41.027Z,15.5
2018-09-27T03:49:43.053Z,15.5
2018-09-27T03:50:45.084Z,15.5
2018-09-27T03:51:47.112Z,15.5
2018-09-27T03:52:49.447Z,15.5
2018-09-27T03:53:51.483Z,15.5
2018-09-27T03:54:53.801Z,15.6
2018-09-27T03:55:56.117Z,15.6
2018-09-27T03:56:58.419Z,15.5
2018-09-27T03:58:01.240Z,15.5
2018-09-27T03:59:03.855Z,15.5
2018-09-27T04:00:06.269Z,15.6
2018-09-27T04:01:08.580Z,15.5
2018-09-27T04:02:10.627Z,15.6
2018-09-27T04:03:13.156Z,15.6
2018-09-27T04:04:15.502Z,15.6
2018-09-27T04:05:17.523Z,15.6
2018-09-27T04:06:19.842Z,15.6
2018-09-27T04:07:21.872Z,15.6
2018-09-27T04:08:24.180Z,15.6
2018-09-27T04:09:26.504Z,15.6
2018-09-27T04:10:28.812Z,15.6
2018-09-27T04:11:31.128Z,15.6
2018-09-27T04:12:33.820Z,15.6
2018-09-27T04:13:35.786Z,15.6
2018-09-27T04:14:38.099Z,15.6
2018-09-27T04:15:40.181Z,15.6
2018-09-27T04:16:42.157Z,15.6
2018-09-27T04:17:44.476Z,15.6
2018-09-27T04:18:46.516Z,15.6
2018-09-27T04:19:48.544Z,15.6
2018-09-27T04:20:50.865Z,15.6
2018-09-27T04:21:52.932Z,15.6
2018-09-27T04:22:54.933Z,15.6
2018-09-27T04:23:57.334Z,15.6
2018-09-27T04:24:59.303Z,15.6
2018-09-27T04:26:01.321Z,15.6
2018-09-27T04:27:03.356Z,15.6
2018-09-27T04:28:05.774Z,15.6
2018-09-27T04:29:08.197Z,15.6
2018-09-27T04:30:10.496Z,15.6
2018-09-27T04:31:12.538Z,15.6
2018-09-27T04:32:14.562Z,15.6
2018-09-27T04:33:16.595Z,15.6
2018-09-27T04:34:18.636Z,15.6
2018-09-27T04:35:21.040Z,15.6
2018-09-27T04:36:23.069Z,15.6
2018-09-27T04:37:25.091Z,15.6
2018-09-27T04:38:27.438Z,15.6
2018-09-27T04:39:29.462Z,15.6
2018-09-27T04:40:31.873Z,15.6
2018-09-27T04:41:34.183Z,15.6
2018-09-27T04:42:36.615Z,15.6
2018-09-27T04:43:38.634Z,15.6
2018-09-27T04:44:40.950Z,15.6
2018-09-27T04:45:43.716Z,15.6
2018-09-27T04:46:45.753Z,15.6
2018-09-27T04:47:47.704Z,15.6
2018-09-27T04:48:49.729Z,15.6
2018-09-27T04:49:52.061Z,15.6
2018-09-27T04:50:54.093Z,15.6
2018-09-27T04:51:56.168Z,15.6
2018-09-27T04:52:58.161Z,15.6
2018-09-27T04:54:00.474Z,15.6
2018-09-27T04:55:02.510Z,15.6
2018-09-27T04:56:04.535Z,15.6
2018-09-27T04:57:06.567Z,15.5
2018-09-27T04:58:08.598Z,15.5
2018-09-27T04:59:10.614Z,15.5
2018-09-27T05:00:12.650Z,15.5
2018-09-27T05:01:14.680Z,15.5
2018-09-27T05:02:16.714Z,15.5
2018-09-27T05:03:18.739Z,15.5
2018-09-27T05:04:20.777Z,15.5
2018-09-27T05:05:23.098Z,15.5
2018-09-27T05:06:25.198Z,15.5
2018-09-27T05:07:27.553Z,15.5
2018-09-27T05:08:29.576Z,15.5
2018-09-27T05:09:32.294Z,15.5
2018-09-27T05:10:35.095Z,15.5
2018-09-27T05:11:37.136Z,15.5
2018-09-27T05:12:39.446Z,15.5
2018-09-27T05:13:41.476Z,15.5
2018-09-27T05:14:43.510Z,15.5
2018-09-27T05:15:45.580Z,15.4
2018-09-27T05:16:47.565Z,15.4
2018-09-27T05:17:49.599Z,15.4
2018-09-27T05:18:51.624Z,15.4
2018-09-27T05:19:53.657Z,15.5
2018-09-27T05:20:55.699Z,15.5
2018-09-27T05:21:57.726Z,15.5
2018-09-27T05:22:59.756Z,15.5
2018-09-27T05:24:02.084Z,15.5
2018-09-27T05:25:04.119Z,15.5
2018-09-27T05:26:06.428Z,15.5
2018-09-27T05:27:08.496Z,15.5
2018-09-27T05:28:10.478Z,15.6
2018-09-27T05:29:12.511Z,15.6
2018-09-27T05:30:14.538Z,15.6
2018-09-27T05:31:16.568Z,15.5
2018-09-27T05:32:18.611Z,15.6
2018-09-27T05:33:20.919Z,15.5
2018-09-27T05:34:23.348Z,15.5
2018-09-27T05:35:25.374Z,15.5
2018-09-27T05:36:27.414Z,15.5
2018-09-27T05:37:29.434Z,15.6
2018-09-27T05:38:31.465Z,15.6
2018-09-27T05:39:33.563Z,15.6
2018-09-27T05:40:36.277Z,15.6
2018-09-27T05:41:38.316Z,15.6
2018-09-27T05:42:40.344Z,15.6
2018-09-27T05:43:42.381Z,15.6
2018-09-27T05:44:44.399Z,15.6
2018-09-27T05:45:46.732Z,15.6
2018-09-27T05:46:48.762Z,15.6
2018-09-27T05:47:50.789Z,15.6
2018-09-27T05:48:53.137Z,15.6
2018-09-27T05:49:55.633Z,15.6
2018-09-27T05:50:57.592Z,15.6
2018-09-27T05:51:59.629Z,15.6
2018-09-27T05:53:01.657Z,15.7
2018-09-27T05:54:03.679Z,15.7
2018-09-27T05:55:05.708Z,15.7
2018-09-27T05:56:07.740Z,15.7
2018-09-27T05:57:09.767Z,15.7
2018-09-27T05:58:11.786Z,15.7
2018-09-27T05:59:14.105Z,15.7
2018-09-27T06:00:16.142Z,15.7
2018-09-27T06:01:18.169Z,15.7
2018-09-27T06:02:20.509Z,15.7
2018-09-27T06:03:22.589Z,15.7
2018-09-27T06:04:24.574Z,15.7
2018-09-27T06:05:26.616Z,15.7
2018-09-27T06:06:28.638Z,15.8
2018-09-27T06:07:30.668Z,15.7
2018-09-27T06:08:33.083Z,15.8
2018-09-27T06:09:35.666Z,15.8
2018-09-27T06:10:37.978Z,15.8
2018-09-27T06:11:40.315Z,15.8
2018-09-27T06:12:42.345Z,15.8
2018-09-27T06:13:44.361Z,15.8
2018-09-27T06:14:46.396Z,15.8
2018-09-27T06:15:48.426Z,15.8
2018-09-27T06:16:50.458Z,15.8
2018-09-27T06:17:52.479Z,15.8
2018-09-27T06:18:54.525Z,15.9
2018-09-27T06:19:56.591Z,15.9
2018-09-27T06:20:58.973Z,15.9
2018-09-27T06:22:01.396Z,15.9
2018-09-27T06:23:03.796Z,15.9
2018-09-27T06:24:06.117Z,15.9
2018-09-27T06:25:08.154Z,16
2018-09-27T06:26:10.269Z,16
2018-09-27T06:27:12.203Z,16
2018-09-27T06:28:14.233Z,16
2018-09-27T06:29:16.262Z,16
2018-09-27T06:30:18.289Z,16
2018-09-27T06:31:20.332Z,15.9
2018-09-27T06:32:22.360Z,15.9
2018-09-27T06:33:24.694Z,15.9
2018-09-27T06:34:26.690Z,15.9
2018-09-27T06:35:28.724Z,15.9
2018-09-27T06:36:30.753Z,15.9
2018-09-27T06:37:32.778Z,15.9
2018-09-27T06:38:34.848Z,15.9
2018-09-27T06:39:36.846Z,15.9
2018-09-27T06:40:38.875Z,15.9
2018-09-27T06:41:40.897Z,15.9
2018-09-27T06:42:42.946Z,15.9
2018-09-27T06:43:44.956Z,15.9
2018-09-27T06:44:46.985Z,15.9
2018-09-27T06:45:49.014Z,15.9
2018-09-27T06:46:51.030Z,15.9
2018-09-27T06:47:53.455Z,15.9
2018-09-27T06:48:55.922Z,15.9
2018-09-27T06:49:57.958Z,15.9
2018-09-27T06:50:59.982Z,16
2018-09-27T06:52:02.024Z,16
2018-09-27T06:53:04.051Z,16
2018-09-27T06:54:06.077Z,16
2018-09-27T06:55:08.963Z,16
2018-09-27T06:56:11.800Z,16
2018-09-27T06:57:13.756Z,16.1
2018-09-27T06:58:15.790Z,16.1
2018-09-27T06:59:17.822Z,16.1
2018-09-27T07:00:19.841Z,16.1
2018-09-27T07:01:21.870Z,16.1
2018-09-27T07:02:23.943Z,16.1
2018-09-27T07:03:26.263Z,16.2
2018-09-27T07:04:28.304Z,16.2
2018-09-27T07:05:30.621Z,16.3
2018-09-27T07:06:32.651Z,16.3
2018-09-27T07:07:35.382Z,16.3
2018-09-27T07:08:37.482Z,16.3
2018-09-27T07:09:39.734Z,16.3
2018-09-27T07:10:42.161Z,16.3
2018-09-27T07:11:44.487Z,16.4
2018-09-27T07:12:46.940Z,16.4
2018-09-27T07:13:48.919Z,16.4
2018-09-27T07:14:51.222Z,16.4
2018-09-27T07:15:53.264Z,16.4
2018-09-27T07:16:55.285Z,16.5
2018-09-27T07:17:57.703Z,16.5
2018-09-27T07:18:59.733Z,16.5
2018-09-27T07:20:01.768Z,16.5
2018-09-27T07:21:04.100Z,16.5
2018-09-27T07:22:06.134Z,16.5
2018-09-27T07:23:08.176Z,16.5
2018-09-27T07:24:10.481Z,16.5
2018-09-27T07:25:12.562Z,16.6
2018-09-27T07:26:15.246Z,16.5
2018-09-27T07:27:17.283Z,16.6
2018-09-27T07:28:19.324Z,16.5
2018-09-27T07:29:22.017Z,16.5
2018-09-27T07:30:24.049Z,16.5
2018-09-27T07:31:26.098Z,16.6
2018-09-27T07:32:28.149Z,16.6
2018-09-27T07:33:30.741Z,16.6
2018-09-27T07:34:33.056Z,16.7
2018-09-27T07:35:35.084Z,16.7
2018-09-27T07:36:37.181Z,16.7
2018-09-27T07:37:39.161Z,16.8
2018-09-27T07:38:41.652Z,16.8
2018-09-27T07:39:43.987Z,16.8
2018-09-27T07:40:46.034Z,16.7
2018-09-27T07:41:48.342Z,16.8
2018-09-27T07:42:50.397Z,16.8
2018-09-27T07:43:53.317Z,16.8
2018-09-27T07:44:55.336Z,16.8
2018-09-27T07:45:57.378Z,16.8
2018-09-27T07:46:59.408Z,16.8
2018-09-27T07:48:01.447Z,16.9
2018-09-27T07:49:03.469Z,16.8
2018-09-27T07:50:05.521Z,16.9
2018-09-27T07:51:07.833Z,16.9
2018-09-27T07:52:10.242Z,16.9
2018-09-27T07:53:12.593Z,16.9
2018-09-27T07:54:14.941Z,17
2018-09-27T07:55:17.589Z,16.9
2018-09-27T07:56:19.617Z,17
2018-09-27T07:57:22.044Z,17
2018-09-27T07:58:24.066Z,17.1
2018-09-27T07:59:26.383Z,17.1
2018-09-27T08:00:28.424Z,17.1
2018-09-27T08:01:30.449Z,17.1
2018-09-27T08:02:33.264Z,17
2018-09-27T08:03:35.223Z,17.1
2018-09-27T08:04:37.921Z,17.2
2018-09-27T08:05:40.536Z,17.1
2018-09-27T08:06:42.578Z,17.1
2018-09-27T08:07:44.615Z,17.2
2018-09-27T08:08:47.330Z,17.3
2018-09-27T08:09:49.358Z,17.4
2018-09-27T08:10:51.429Z,17.6
2018-09-27T08:11:53.502Z,17.6
2018-09-27T08:12:55.842Z,17.8
2018-09-27T08:13:58.155Z,17.9
2018-09-27T08:15:00.781Z,17.8
2018-09-27T08:16:02.817Z,17.8
2018-09-27T08:17:04.882Z,18
2018-09-27T08:18:06.898Z,18.2
2018-09-27T08:19:08.923Z,18.4
2018-09-27T08:20:10.958Z,18.3
2018-09-27T08:21:13.129Z,18.3
2018-09-27T08:22:15.052Z,18.3
2018-09-27T08:23:17.074Z,18.5
2018-09-27T08:24:19.110Z,18.6
2018-09-27T08:25:21.147Z,18.7
2018-09-27T08:26:23.621Z,19
2018-09-27T08:27:25.606Z,19
2018-09-27T08:28:27.641Z,19
2018-09-27T08:29:29.670Z,19
2018-09-27T08:30:32.134Z,19.2
2018-09-27T08:31:34.153Z,19.3
2018-09-27T08:32:36.238Z,19.4
2018-09-27T08:33:38.233Z,19.2
2018-09-27T08:34:40.257Z,18.9
2018-09-27T08:35:42.306Z,19.3
2018-09-27T08:36:44.934Z,19.2
2018-09-27T08:37:46.972Z,19.7
2018-09-27T08:38:49.381Z,19.5
2018-09-27T08:39:51.349Z,19.8
2018-09-27T08:40:53.395Z,19.8
2018-09-27T08:41:55.427Z,19.8
2018-09-27T08:42:57.463Z,19.8
2018-09-27T08:43:59.495Z,19.6
2018-09-27T08:45:03.243Z,19.6
2018-09-27T08:46:05.110Z,19.8
2018-09-27T08:47:07.136Z,19.9
2018-09-27T08:48:09.184Z,20
2018-09-27T08:49:11.225Z,20.2
2018-09-27T08:50:13.263Z,20.1
2018-09-27T08:51:15.314Z,20.1
2018-09-27T08:52:17.343Z,20
2018-09-27T08:53:19.382Z,20
2018-09-27T08:54:21.411Z,20.4
2018-09-27T08:55:23.810Z,20.4
2018-09-27T08:56:25.889Z,20.3
2018-09-27T08:57:28.249Z,20.4
2018-09-27T08:58:30.198Z,20.3
2018-09-27T08:59:32.227Z,20.6
2018-09-27T09:00:34.281Z,20.3
2018-09-27T09:01:36.361Z,20.3
2018-09-27T09:02:38.370Z,19.8
2018-09-27T09:03:40.506Z,20.1
2018-09-27T09:04:42.998Z,20.4
2018-09-27T09:05:45.045Z,20.2
2018-09-27T09:06:47.074Z,19.8
2018-09-27T09:07:49.414Z,20
2018-09-27T09:08:51.440Z,20.2
2018-09-27T09:09:53.483Z,20.4
2018-09-27T09:10:56.203Z,20.3
2018-09-27T09:11:58.252Z,20.3
2018-09-27T09:13:00.569Z,19.9
2018-09-27T09:14:02.610Z,19.9
2018-09-27T09:15:04.653Z,19.9
2018-09-27T09:16:06.688Z,20
2018-09-27T09:17:09.047Z,20.1
2018-09-27T09:18:11.085Z,20.3
2018-09-27T09:19:13.705Z,20.1
2018-09-27T09:20:15.761Z,20.5
2018-09-27T09:21:17.791Z,20.6
2018-09-27T09:22:19.828Z,20.4
2018-09-27T09:23:21.868Z,20.3
2018-09-27T09:24:23.900Z,20.4
2018-09-27T09:25:25.944Z,20.7
2018-09-27T09:26:28.265Z,20.5
2018-09-27T09:27:30.370Z,20.4
2018-09-27T09:28:32.718Z,20.5
2018-09-27T09:29:35.343Z,20.2
2018-09-27T09:30:37.261Z,20.6
2018-09-27T09:31:39.304Z,20.6
2018-09-27T09:32:41.350Z,20.5
2018-09-27T09:33:43.490Z,20.5
2018-09-27T09:34:45.419Z,20.3
2018-09-27T09:35:47.472Z,20.4
2018-09-27T09:36:49.510Z,20.1
2018-09-27T09:37:51.546Z,20.1
2018-09-27T09:38:54.147Z,20.2
2018-09-27T09:39:56.194Z,20.2
2018-09-27T09:40:58.224Z,20.4
2018-09-27T09:42:00.273Z,20.5
2018-09-27T09:43:02.316Z,20.3
2018-09-27T09:44:04.397Z,20.4
2018-09-27T09:45:06.408Z,19.9
2018-09-27T09:46:08.442Z,20.1
2018-09-27T09:47:10.877Z,20.3
2018-09-27T09:48:12.920Z,20.3
2018-09-27T09:49:14.965Z,20.1
2018-09-27T09:50:17.029Z,20.3
2018-09-27T09:51:19.075Z,20.7
2018-09-27T09:52:21.120Z,20.9
2018-09-27T09:53:23.169Z,21
2018-09-27T09:54:25.206Z,21
2018-09-27T09:55:27.250Z,21.3
2018-09-27T09:56:29.293Z,21.3
2018-09-27T09:57:31.715Z,21.4
2018-09-27T09:58:34.050Z,21.6
2018-09-27T09:59:36.094Z,22
2018-09-27T10:00:38.142Z,21.9
2018-09-27T10:01:41.113Z,22
2018-09-27T10:02:43.226Z,21.5
2018-09-27T10:03:45.943Z,21.8
2018-09-27T10:04:47.978Z,22.1
2018-09-27T10:05:50.315Z,21.9
2018-09-27T10:06:52.347Z,21.9
2018-09-27T10:07:54.385Z,21.9
2018-09-27T10:08:56.917Z,21.6
2018-09-27T10:09:58.939Z,21.5
2018-09-27T10:11:00.971Z,21.1
2018-09-27T10:12:03.015Z,21.2
2018-09-27T10:13:05.344Z,20.9
2018-09-27T10:14:07.377Z,20.6
2018-09-27T10:15:09.479Z,21.1
2018-09-27T10:16:11.773Z,21.2
2018-09-27T10:17:13.832Z,21.5
2018-09-27T10:18:16.341Z,21.4
2018-09-27T10:19:18.394Z,21.3
2018-09-27T10:20:20.561Z,21.4
2018-09-27T10:21:23.043Z,21.3
2018-09-27T10:22:25.116Z,21.1
2018-09-27T10:23:27.553Z,20.8
2018-09-27T10:24:29.887Z,20.5
2018-09-27T10:25:31.937Z,20.6
2018-09-27T10:26:33.967Z,20.9
2018-09-27T10:27:36.562Z,20.7
2018-09-27T10:28:38.786Z,20.9
2018-09-27T10:29:41.012Z,20.7
2018-09-27T10:30:43.024Z,21.1
2018-09-27T10:31:45.062Z,21.1
2018-09-27T10:32:47.106Z,21.2
2018-09-27T10:33:49.145Z,21.2
2018-09-27T10:34:51.482Z,21.2
2018-09-27T10:35:53.510Z,21.3
2018-09-27T10:36:55.551Z,21.2
2018-09-27T10:37:58.286Z,21.1
2018-09-27T10:39:02.093Z,21.3
2018-09-27T10:40:04.421Z,21.2
2018-09-27T10:41:06.469Z,20.8
2018-09-27T10:42:08.522Z,20.8
2018-09-27T10:43:10.557Z,20.8
2018-09-27T10:44:12.605Z,20.8
2018-09-27T10:45:14.955Z,20.7
2018-09-27T10:46:16.990Z,20.7
2018-09-27T10:47:19.037Z,20.6
2018-09-27T10:48:21.740Z,20.6
2018-09-27T10:49:23.777Z,20.7
2018-09-27T10:50:25.823Z,20.8
2018-09-27T10:51:28.485Z,20.9
2018-09-27T10:52:30.332Z,20.7
2018-09-27T10:53:32.654Z,20.9
2018-09-27T10:54:34.682Z,20.9
2018-09-27T10:55:36.722Z,21
2018-09-27T10:56:38.774Z,21.1
2018-09-27T10:57:41.103Z,21.1
2018-09-27T10:58:43.149Z,21.6
2018-09-27T10:59:45.255Z,21.9
2018-09-27T11:00:47.518Z,21.8
2018-09-27T11:01:49.563Z,22.1
2018-09-27T11:02:51.892Z,22.1
2018-09-27T11:03:54.846Z,21.6
2018-09-27T11:04:56.878Z,22
2018-09-27T11:05:58.920Z,22.2
2018-09-27T11:07:00.965Z,21.9
2018-09-27T11:08:03.018Z,21.9
2018-09-27T11:09:05.334Z,22
2018-09-27T11:10:07.372Z,21.9
2018-09-27T11:11:09.613Z,22.2
2018-09-27T11:12:11.909Z,22
2018-09-27T11:13:14.240Z,22
2018-09-27T11:14:16.282Z,21.9
2018-09-27T11:15:18.331Z,21.9
2018-09-27T11:16:20.363Z,22
2018-09-27T11:17:22.416Z,21.8
2018-09-27T11:18:24.457Z,21.9
2018-09-27T11:19:26.495Z,22.2
2018-09-27T11:20:28.548Z,22.5
2018-09-27T11:21:30.860Z,22.4
2018-09-27T11:22:32.902Z,22.1
2018-09-27T11:23:34.950Z,22.5
2018-09-27T11:24:37.657Z,22.7
2018-09-27T11:25:40.073Z,23.2
2018-09-27T11:26:42.117Z,23.7
2018-09-27T11:27:44.973Z,23.2
2018-09-27T11:28:46.995Z,23.3
2018-09-27T11:29:49.046Z,23.2
2018-09-27T11:30:51.371Z,23.1
2018-09-27T11:31:53.798Z,23.2
2018-09-27T11:32:56.269Z,23.6
2018-09-27T11:33:58.286Z,23.6
2018-09-27T11:35:00.714Z,23.6
2018-09-27T11:36:02.751Z,23.7
2018-09-27T11:37:04.806Z,23.6
2018-09-27T11:38:07.132Z,23.4
2018-09-27T11:39:09.178Z,23.7
2018-09-27T11:40:11.213Z,23.8
2018-09-27T11:41:13.272Z,23.9
2018-09-27T11:42:15.359Z,24
2018-09-27T11:43:17.347Z,24.1
2018-09-27T11:44:19.390Z,24.3
2018-09-27T11:45:21.420Z,24.7
2018-09-27T11:46:23.472Z,24.9
2018-09-27T11:47:25.516Z,24.5
2018-09-27T11:48:27.565Z,24.4
2018-09-27T11:49:30.129Z,24.5
2018-09-27T11:50:32.945Z,24.5
2018-09-27T11:51:34.991Z,24.1
2018-09-27T11:52:37.031Z,24.2
2018-09-27T11:53:39.090Z,24.1
2018-09-27T11:54:41.130Z,24.1
2018-09-27T11:55:43.175Z,24.3
2018-09-27T11:56:45.227Z,24.6
2018-09-27T11:57:47.567Z,24.8
2018-09-27T11:58:49.986Z,24.8
2018-09-27T11:59:52.419Z,24.7
2018-09-27T12:00:54.751Z,24.9
2018-09-27T12:01:56.798Z,24.8
2018-09-27T12:02:58.853Z,24.9
2018-09-27T12:04:00.899Z,24.9
2018-09-27T12:05:03.225Z,24.2
2018-09-27T12:06:05.282Z,24.4
2018-09-27T12:07:07.612Z,24.2
2018-09-27T12:08:09.656Z,24.1
2018-09-27T12:09:11.700Z,24
2018-09-27T12:10:13.733Z,23.8
2018-09-27T12:11:15.782Z,23.6
2018-09-27T12:12:18.218Z,23.4
2018-09-27T12:13:20.276Z,23.8
2018-09-27T12:14:22.312Z,23.7
2018-09-27T12:15:24.354Z,23.6
2018-09-27T12:16:26.398Z,23.1
2018-09-27T12:17:29.160Z,23.2
2018-09-27T12:18:31.731Z,23
2018-09-27T12:19:33.827Z,23
2018-09-27T12:20:35.829Z,22.9
2018-09-27T12:21:37.874Z,22.9
2018-09-27T12:22:39.907Z,22.6
2018-09-27T12:23:41.959Z,22.9
2018-09-27T12:24:44.008Z,22.9
2018-09-27T12:25:46.838Z,22.8
2018-09-27T12:26:48.893Z,22.8
2018-09-27T12:27:51.596Z,22.7
2018-09-27T12:28:53.639Z,22.8
2018-09-27T12:29:56.253Z,22.7
2018-09-27T12:30:58.361Z,22.7
2018-09-27T12:32:00.327Z,22.6
2018-09-27T12:33:02.371Z,22.7
2018-09-27T12:34:05.630Z,22.8
2018-09-27T12:35:07.692Z,22.9
2018-09-27T12:36:09.713Z,23.1
2018-09-27T12:37:11.752Z,23.2
2018-09-27T12:38:14.140Z,23
2018-09-27T12:39:16.526Z,22.9
2018-09-27T12:40:18.868Z,22.6
2018-09-27T12:41:21.296Z,22.5
2018-09-27T12:42:23.350Z,22.6
2018-09-27T12:43:25.368Z,22.6
2018-09-27T12:44:27.419Z,22.6
2018-09-27T12:45:29.474Z,22.6
2018-09-27T12:46:32.060Z,22.4
2018-09-27T12:47:34.050Z,22.4
2018-09-27T12:48:36.143Z,22.2
2018-09-27T12:49:38.146Z,22.4
2018-09-27T12:50:40.710Z,22.4
2018-09-27T12:51:43.327Z,22.4
2018-09-27T12:52:45.342Z,22.5
2018-09-27T12:53:47.633Z,22.5
2018-09-27T12:54:49.673Z,22.6
2018-09-27T12:55:51.728Z,22.5
2018-09-27T12:56:53.758Z,22.6
2018-09-27T12:57:55.795Z,22.8
2018-09-27T12:58:57.841Z,22.9
2018-09-27T13:00:00.153Z,23
2018-09-27T13:01:02.636Z,23
2018-09-27T13:02:04.741Z,22.9
2018-09-27T13:03:06.649Z,22.9
2018-09-27T13:04:09.199Z,22.9
2018-09-27T13:05:11.217Z,22.8
2018-09-27T13:06:13.540Z,22.7
2018-09-27T13:07:15.897Z,22.6
2018-09-27T13:08:17.950Z,22.6
2018-09-27T13:09:20.121Z,22.6
2018-09-27T13:10:22.092Z,22.5
2018-09-27T13:11:24.516Z,22.6
2018-09-27T13:12:26.674Z,22.4
2018-09-27T13:13:29.309Z,22.5
2018-09-27T13:14:31.187Z,22.4
2018-09-27T13:15:33.515Z,22.4
2018-09-27T13:16:35.572Z,22.4
2018-09-27T13:17:38.223Z,22.3
2018-09-27T13:18:40.169Z,22.5
2018-09-27T13:19:45.347Z,22.5
2018-09-27T13:20:47.499Z,22.5
2018-09-27T13:21:49.437Z,22.5
2018-09-27T13:22:52.024Z,22.6
2018-09-27T13:23:54.136Z,22.5
2018-09-27T13:24:56.327Z,22.6
2018-09-27T13:25:58.417Z,22.5
2018-09-27T13:27:00.579Z,22.5
2018-09-27T13:28:02.623Z,22.4
2018-09-27T13:29:04.678Z,22.5
2018-09-27T13:30:07.550Z,22.7
2018-09-27T13:31:09.531Z,22.8
2018-09-27T13:32:11.665Z,22.7
2018-09-27T13:33:13.712Z,22.7
2018-09-27T13:34:16.541Z,22.8
2018-09-27T13:35:18.582Z,22.8
2018-09-27T13:36:20.617Z,22.8
2018-09-27T13:37:22.657Z,22.7
2018-09-27T13:38:25.285Z,22.6
2018-09-27T13:39:27.329Z,22.6
2018-09-27T13:40:29.370Z,22.6
2018-09-27T13:41:31.410Z,22.4
2018-09-27T13:42:33.440Z,22.4
2018-09-27T13:43:35.483Z,22.4
2018-09-27T13:44:37.818Z,22.4
2018-09-27T13:45:39.844Z,22.3
2018-09-27T13:46:41.889Z,22.5
2018-09-27T13:47:43.931Z,22.4
2018-09-27T13:48:45.972Z,22.4
2018-09-27T13:49:48.314Z,22.4
2018-09-27T13:50:50.379Z,22.4